sensor_id;sensor_type;location;lat;lon;timestamp;temperature;humidity
16521;DHT22;8373;48.110;11.522;2023-02-12T00:00:18;7.30;55.90
16521;DHT22;8373;48.110;11.522;2023-02-12T00:02:45;7.40;56.00
16521;DHT22;8373;48.110;11.522;2023-02-12T00:05:14;7.40;56.00
16521;DHT22;8373;48.110;11.522;2023-02-12T00:07:41;7.40;56.00
16521;DHT22;8373;48.110;11.522;2023-02-12T00:10:09;7.50;56.10
16521;DHT22;8373;48.110;11.522;2023-02-12T00:12:36;7.60;56.10
16521;DHT22;8373;48.110;11.522;2023-02-12T00:15:03;7.60;55.90
16521;DHT22;8373;48.110;11.522;2023-02-12T00:17:30;7.60;55.90
16521;DHT22;8373;48.110;11.522;2023-02-12T00:19:57;7.60;56.10
16521;DHT22;8373;48.110;11.522;2023-02-12T00:22:25;7.60;56.30
16521;DHT22;8373;48.110;11.522;2023-02-12T00:24:54;7.50;56.20
16521;DHT22;8373;48.110;11.522;2023-02-12T00:27:21;7.50;56.60
16521;DHT22;8373;48.110;11.522;2023-02-12T00:29:48;7.50;56.80
16521;DHT22;8373;48.110;11.522;2023-02-12T00:32:15;7.40;57.60
16521;DHT22;8373;48.110;11.522;2023-02-12T00:34:44;7.40;57.10
16521;DHT22;8373;48.110;11.522;2023-02-12T00:37:11;7.40;57.30
16521;DHT22;8373;48.110;11.522;2023-02-12T00:39:39;7.30;57.40
16521;DHT22;8373;48.110;11.522;2023-02-12T00:42:07;7.30;57.60
16521;DHT22;8373;48.110;11.522;2023-02-12T00:44:34;7.40;57.70
16521;DHT22;8373;48.110;11.522;2023-02-12T00:47:01;7.40;57.70
16521;DHT22;8373;48.110;11.522;2023-02-12T00:49:29;7.40;58.50
16521;DHT22;8373;48.110;11.522;2023-02-12T00:51:58;7.40;57.90
16521;DHT22;8373;48.110;11.522;2023-02-12T00:54:25;7.40;57.70
16521;DHT22;8373;48.110;11.522;2023-02-12T00:56:54;7.40;57.70
16521;DHT22;8373;48.110;11.522;2023-02-12T00:59:22;7.40;57.70
16521;DHT22;8373;48.110;11.522;2023-02-12T01:01:49;7.40;57.60
16521;DHT22;8373;48.110;11.522;2023-02-12T01:04:17;7.40;57.50
16521;DHT22;8373;48.110;11.522;2023-02-12T01:06:44;7.40;57.30
16521;DHT22;8373;48.110;11.522;2023-02-12T01:09:11;7.40;57.30
16521;DHT22;8373;48.110;11.522;2023-02-12T01:11:39;7.40;57.10
16521;DHT22;8373;48.110;11.522;2023-02-12T01:14:07;7.40;57.10
16521;DHT22;8373;48.110;11.522;2023-02-12T01:16:35;7.50;57.10
16521;DHT22;8373;48.110;11.522;2023-02-12T01:19:03;7.40;57.00
16521;DHT22;8373;48.110;11.522;2023-02-12T01:21:31;7.40;57.00
16521;DHT22;8373;48.110;11.522;2023-02-12T01:23:59;7.30;57.10
16521;DHT22;8373;48.110;11.522;2023-02-12T01:26:27;7.30;57.20
16521;DHT22;8373;48.110;11.522;2023-02-12T01:28:56;7.30;57.40
16521;DHT22;8373;48.110;11.522;2023-02-12T01:31:26;7.30;57.40
16521;DHT22;8373;48.110;11.522;2023-02-12T01:33:55;7.40;57.30
16521;DHT22;8373;48.110;11.522;2023-02-12T01:36:23;7.30;57.10
16521;DHT22;8373;48.110;11.522;2023-02-12T01:38:50;7.30;57.10
16521;DHT22;8373;48.110;11.522;2023-02-12T01:41:19;7.40;57.20
16521;DHT22;8373;48.110;11.522;2023-02-12T01:44:05;7.40;56.90
16521;DHT22;8373;48.110;11.522;2023-02-12T01:46:34;7.50;56.70
16521;DHT22;8373;48.110;11.522;2023-02-12T01:49:02;7.40;56.60
16521;DHT22;8373;48.110;11.522;2023-02-12T01:51:30;7.30;56.50
16521;DHT22;8373;48.110;11.522;2023-02-12T01:54:03;7.30;56.80
16521;DHT22;8373;48.110;11.522;2023-02-12T01:56:31;7.30;56.80
16521;DHT22;8373;48.110;11.522;2023-02-12T01:58:58;7.30;56.80
16521;DHT22;8373;48.110;11.522;2023-02-12T02:01:27;7.30;56.90
16521;DHT22;8373;48.110;11.522;2023-02-12T02:03:59;7.30;56.80
16521;DHT22;8373;48.110;11.522;2023-02-12T02:06:30;7.30;56.70
16521;DHT22;8373;48.110;11.522;2023-02-12T02:08:57;7.30;56.70
16521;DHT22;8373;48.110;11.522;2023-02-12T02:11:24;7.30;56.60
16521;DHT22;8373;48.110;11.522;2023-02-12T02:14:08;7.30;56.60
16521;DHT22;8373;48.110;11.522;2023-02-12T02:17:00;7.30;56.70
16521;DHT22;8373;48.110;11.522;2023-02-12T02:19:42;7.20;56.80
16521;DHT22;8373;48.110;11.522;2023-02-12T02:22:23;7.10;56.80
16521;DHT22;8373;48.110;11.522;2023-02-12T02:28:02;7.10;57.20
16521;DHT22;8373;48.110;11.522;2023-02-12T02:30:37;7.20;57.20
16521;DHT22;8373;48.110;11.522;2023-02-12T02:33:15;7.10;56.90
16521;DHT22;8373;48.110;11.522;2023-02-12T02:35:51;7.10;57.10
16521;DHT22;8373;48.110;11.522;2023-02-12T02:38:27;7.10;57.10
16521;DHT22;8373;48.110;11.522;2023-02-12T02:41:02;7.10;57.10
16521;DHT22;8373;48.110;11.522;2023-02-12T02:43:34;7.10;57.10
16521;DHT22;8373;48.110;11.522;2023-02-12T02:46:10;7.10;57.00
16521;DHT22;8373;48.110;11.522;2023-02-12T02:48:40;7.10;57.00
16521;DHT22;8373;48.110;11.522;2023-02-12T02:51:13;7.00;57.10
16521;DHT22;8373;48.110;11.522;2023-02-12T02:53:43;7.00;57.30
16521;DHT22;8373;48.110;11.522;2023-02-12T02:56:14;7.00;57.40
16521;DHT22;8373;48.110;11.522;2023-02-12T02:58:45;7.00;57.40
16521;DHT22;8373;48.110;11.522;2023-02-12T03:01:17;7.00;57.60
16521;DHT22;8373;48.110;11.522;2023-02-12T03:03:47;7.10;57.60
16521;DHT22;8373;48.110;11.522;2023-02-12T03:06:21;7.20;57.60
16521;DHT22;8373;48.110;11.522;2023-02-12T03:08:51;7.20;57.40
16521;DHT22;8373;48.110;11.522;2023-02-12T03:11:24;7.20;57.40
16521;DHT22;8373;48.110;11.522;2023-02-12T03:13:56;7.20;57.40
16521;DHT22;8373;48.110;11.522;2023-02-12T03:16:27;7.20;57.60
16521;DHT22;8373;48.110;11.522;2023-02-12T03:18:58;7.20;57.60
16521;DHT22;8373;48.110;11.522;2023-02-12T03:21:30;7.30;57.60
16521;DHT22;8373;48.110;11.522;2023-02-12T03:24:01;7.30;57.40
16521;DHT22;8373;48.110;11.522;2023-02-12T03:26:37;7.10;57.40
16521;DHT22;8373;48.110;11.522;2023-02-12T03:29:06;7.00;57.70
16521;DHT22;8373;48.110;11.522;2023-02-12T03:31:40;7.00;58.10
16521;DHT22;8373;48.110;11.522;2023-02-12T03:34:12;7.00;58.30
16521;DHT22;8373;48.110;11.522;2023-02-12T03:36:47;7.00;58.40
16521;DHT22;8373;48.110;11.522;2023-02-12T03:39:23;7.00;58.40
16521;DHT22;8373;48.110;11.522;2023-02-12T03:41:58;7.00;58.60
16521;DHT22;8373;48.110;11.522;2023-02-12T03:44:37;7.00;59.00
16521;DHT22;8373;48.110;11.522;2023-02-12T03:47:16;7.00;59.30
16521;DHT22;8373;48.110;11.522;2023-02-12T03:49:51;7.00;59.30
16521;DHT22;8373;48.110;11.522;2023-02-12T03:52:19;7.00;59.50
16521;DHT22;8373;48.110;11.522;2023-02-12T03:54:46;7.10;59.70
16521;DHT22;8373;48.110;11.522;2023-02-12T03:57:17;7.10;59.60
16521;DHT22;8373;48.110;11.522;2023-02-12T03:59:45;7.10;59.70
16521;DHT22;8373;48.110;11.522;2023-02-12T04:02:15;7.00;59.60
16521;DHT22;8373;48.110;11.522;2023-02-12T04:04:44;7.00;59.80
16521;DHT22;8373;48.110;11.522;2023-02-12T04:07:12;7.00;60.00
16521;DHT22;8373;48.110;11.522;2023-02-12T04:09:39;7.10;59.80
16521;DHT22;8373;48.110;11.522;2023-02-12T04:15:15;7.00;59.70
16521;DHT22;8373;48.110;11.522;2023-02-12T04:17:49;7.10;60.00
16521;DHT22;8373;48.110;11.522;2023-02-12T04:20:23;7.10;60.00
16521;DHT22;8373;48.110;11.522;2023-02-12T04:22:56;7.10;60.20
16521;DHT22;8373;48.110;11.522;2023-02-12T04:25:38;7.10;60.30
16521;DHT22;8373;48.110;11.522;2023-02-12T04:28:12;7.00;60.80
16521;DHT22;8373;48.110;11.522;2023-02-12T04:30:46;7.00;61.30
16521;DHT22;8373;48.110;11.522;2023-02-12T04:33:18;7.00;60.80
16521;DHT22;8373;48.110;11.522;2023-02-12T04:35:49;6.90;60.70
16521;DHT22;8373;48.110;11.522;2023-02-12T04:38:20;7.00;60.90
16521;DHT22;8373;48.110;11.522;2023-02-12T04:40:48;7.00;60.80
16521;DHT22;8373;48.110;11.522;2023-02-12T04:43:25;6.90;60.70
16521;DHT22;8373;48.110;11.522;2023-02-12T04:45:53;6.90;60.70
16521;DHT22;8373;48.110;11.522;2023-02-12T04:48:21;7.00;60.70
16521;DHT22;8373;48.110;11.522;2023-02-12T04:50:48;7.00;60.40
16521;DHT22;8373;48.110;11.522;2023-02-12T04:53:15;7.00;60.20
16521;DHT22;8373;48.110;11.522;2023-02-12T04:55:42;6.90;60.20
16521;DHT22;8373;48.110;11.522;2023-02-12T04:58:09;6.90;60.20
16521;DHT22;8373;48.110;11.522;2023-02-12T05:00:36;6.90;60.10
16521;DHT22;8373;48.110;11.522;2023-02-12T05:03:03;6.90;60.10
16521;DHT22;8373;48.110;11.522;2023-02-12T05:05:33;6.90;60.20
16521;DHT22;8373;48.110;11.522;2023-02-12T05:08:00;7.00;60.20
16521;DHT22;8373;48.110;11.522;2023-02-12T05:10:27;6.90;59.90
16521;DHT22;8373;48.110;11.522;2023-02-12T05:12:54;6.90;59.90
16521;DHT22;8373;48.110;11.522;2023-02-12T05:15:21;6.90;60.00
16521;DHT22;8373;48.110;11.522;2023-02-12T05:17:48;7.00;60.20
16521;DHT22;8373;48.110;11.522;2023-02-12T05:20:15;7.10;60.00
16521;DHT22;8373;48.110;11.522;2023-02-12T05:22:44;7.10;59.90
16521;DHT22;8373;48.110;11.522;2023-02-12T05:25:11;7.10;59.90
16521;DHT22;8373;48.110;11.522;2023-02-12T05:27:38;7.10;59.90
16521;DHT22;8373;48.110;11.522;2023-02-12T05:30:06;7.10;60.00
16521;DHT22;8373;48.110;11.522;2023-02-12T05:32:34;7.10;60.00
16521;DHT22;8373;48.110;11.522;2023-02-12T05:35:01;7.10;60.00
16521;DHT22;8373;48.110;11.522;2023-02-12T05:37:28;7.20;60.00
16521;DHT22;8373;48.110;11.522;2023-02-12T05:39:57;7.20;60.00
16521;DHT22;8373;48.110;11.522;2023-02-12T05:42:24;7.10;60.00
16521;DHT22;8373;48.110;11.522;2023-02-12T05:44:51;7.10;60.00
16521;DHT22;8373;48.110;11.522;2023-02-12T05:47:18;7.00;60.30
16521;DHT22;8373;48.110;11.522;2023-02-12T05:49:45;7.00;60.80
16521;DHT22;8373;48.110;11.522;2023-02-12T05:52:12;6.90;60.70
16521;DHT22;8373;48.110;11.522;2023-02-12T05:54:38;6.90;60.70
16521;DHT22;8373;48.110;11.522;2023-02-12T05:57:07;6.90;60.70
16521;DHT22;8373;48.110;11.522;2023-02-12T05:59:34;6.90;61.00
16521;DHT22;8373;48.110;11.522;2023-02-12T06:02:01;7.00;61.00
16521;DHT22;8373;48.110;11.522;2023-02-12T06:04:28;7.00;60.80
16521;DHT22;8373;48.110;11.522;2023-02-12T06:06:56;7.00;60.80
16521;DHT22;8373;48.110;11.522;2023-02-12T06:09:23;7.00;61.10
16521;DHT22;8373;48.110;11.522;2023-02-12T06:11:50;7.00;61.30
16521;DHT22;8373;48.110;11.522;2023-02-12T06:14:19;7.10;61.30
16521;DHT22;8373;48.110;11.522;2023-02-12T06:16:47;7.10;61.30
16521;DHT22;8373;48.110;11.522;2023-02-12T06:19:16;7.10;61.40
16521;DHT22;8373;48.110;11.522;2023-02-12T06:21:43;7.10;61.50
16521;DHT22;8373;48.110;11.522;2023-02-12T06:24:11;7.00;61.40
16521;DHT22;8373;48.110;11.522;2023-02-12T06:26:38;7.00;61.70
16521;DHT22;8373;48.110;11.522;2023-02-12T06:29:05;7.00;62.20
16521;DHT22;8373;48.110;11.522;2023-02-12T06:31:35;7.00;62.60
16521;DHT22;8373;48.110;11.522;2023-02-12T06:34:04;7.10;63.70
16521;DHT22;8373;48.110;11.522;2023-02-12T06:36:31;7.10;65.00
16521;DHT22;8373;48.110;11.522;2023-02-12T06:39:00;7.20;66.20
16521;DHT22;8373;48.110;11.522;2023-02-12T06:41:27;7.20;66.90
16521;DHT22;8373;48.110;11.522;2023-02-12T06:43:54;7.30;67.30
16521;DHT22;8373;48.110;11.522;2023-02-12T06:46:22;7.30;67.60
16521;DHT22;8373;48.110;11.522;2023-02-12T06:48:53;7.30;68.00
16521;DHT22;8373;48.110;11.522;2023-02-12T06:51:21;7.20;68.40
16521;DHT22;8373;48.110;11.522;2023-02-12T06:53:49;7.20;68.80
16521;DHT22;8373;48.110;11.522;2023-02-12T06:56:17;7.10;69.00
16521;DHT22;8373;48.110;11.522;2023-02-12T06:58:46;7.10;69.50
16521;DHT22;8373;48.110;11.522;2023-02-12T07:01:15;7.20;69.60
16521;DHT22;8373;48.110;11.522;2023-02-12T07:03:43;7.20;69.50
16521;DHT22;8373;48.110;11.522;2023-02-12T07:06:12;7.20;69.30
16521;DHT22;8373;48.110;11.522;2023-02-12T07:08:39;7.10;69.00
16521;DHT22;8373;48.110;11.522;2023-02-12T07:11:06;7.20;68.90
16521;DHT22;8373;48.110;11.522;2023-02-12T07:13:33;7.20;69.60
16521;DHT22;8373;48.110;11.522;2023-02-12T07:16:04;7.20;69.10
16521;DHT22;8373;48.110;11.522;2023-02-12T07:18:32;7.30;69.70
16521;DHT22;8373;48.110;11.522;2023-02-12T07:20:59;7.30;69.80
16521;DHT22;8373;48.110;11.522;2023-02-12T07:23:28;7.30;69.90
16521;DHT22;8373;48.110;11.522;2023-02-12T07:25:55;7.40;69.70
16521;DHT22;8373;48.110;11.522;2023-02-12T07:28:23;7.40;69.20
16521;DHT22;8373;48.110;11.522;2023-02-12T07:30:50;7.40;68.00
16521;DHT22;8373;48.110;11.522;2023-02-12T07:33:17;7.40;67.80
16521;DHT22;8373;48.110;11.522;2023-02-12T07:35:44;7.40;66.90
16521;DHT22;8373;48.110;11.522;2023-02-12T07:38:11;7.30;67.00
16521;DHT22;8373;48.110;11.522;2023-02-12T07:40:40;7.20;67.60
16521;DHT22;8373;48.110;11.522;2023-02-12T07:43:07;7.20;68.10
16521;DHT22;8373;48.110;11.522;2023-02-12T07:45:34;7.20;68.60
16521;DHT22;8373;48.110;11.522;2023-02-12T07:48:01;7.30;68.40
16521;DHT22;8373;48.110;11.522;2023-02-12T07:50:28;7.30;67.20
16521;DHT22;8373;48.110;11.522;2023-02-12T07:52:54;7.20;66.00
16521;DHT22;8373;48.110;11.522;2023-02-12T07:55:21;7.30;66.00
16521;DHT22;8373;48.110;11.522;2023-02-12T07:57:50;7.40;65.70
16521;DHT22;8373;48.110;11.522;2023-02-12T08:00:18;7.30;65.30
16521;DHT22;8373;48.110;11.522;2023-02-12T08:02:50;7.20;65.80
16521;DHT22;8373;48.110;11.522;2023-02-12T08:05:17;7.20;66.30
16521;DHT22;8373;48.110;11.522;2023-02-12T08:07:44;7.20;66.30
16521;DHT22;8373;48.110;11.522;2023-02-12T08:10:11;7.40;65.80
16521;DHT22;8373;48.110;11.522;2023-02-12T08:12:38;7.30;65.10
16521;DHT22;8373;48.110;11.522;2023-02-12T08:15:07;7.30;65.40
16521;DHT22;8373;48.110;11.522;2023-02-12T08:17:34;7.40;65.40
16521;DHT22;8373;48.110;11.522;2023-02-12T08:20:02;7.50;65.20
16521;DHT22;8373;48.110;11.522;2023-02-12T08:22:29;7.50;65.50
16521;DHT22;8373;48.110;11.522;2023-02-12T08:24:56;7.40;64.60
16521;DHT22;8373;48.110;11.522;2023-02-12T08:27:23;7.40;65.10
16521;DHT22;8373;48.110;11.522;2023-02-12T08:29:50;7.40;65.50
16521;DHT22;8373;48.110;11.522;2023-02-12T08:32:18;7.40;65.70
16521;DHT22;8373;48.110;11.522;2023-02-12T08:34:45;7.50;65.80
16521;DHT22;8373;48.110;11.522;2023-02-12T08:37:12;7.60;65.50
16521;DHT22;8373;48.110;11.522;2023-02-12T08:39:39;7.70;65.30
16521;DHT22;8373;48.110;11.522;2023-02-12T08:42:06;7.70;65.30
16521;DHT22;8373;48.110;11.522;2023-02-12T08:44:33;7.80;65.30
16521;DHT22;8373;48.110;11.522;2023-02-12T08:47:01;7.90;65.50
16521;DHT22;8373;48.110;11.522;2023-02-12T08:49:30;8.00;65.10
16521;DHT22;8373;48.110;11.522;2023-02-12T08:51:58;8.10;64.90
16521;DHT22;8373;48.110;11.522;2023-02-12T08:54:27;8.10;65.00
16521;DHT22;8373;48.110;11.522;2023-02-12T08:56:55;8.10;65.10
16521;DHT22;8373;48.110;11.522;2023-02-12T08:59:23;8.20;65.30
16521;DHT22;8373;48.110;11.522;2023-02-12T09:01:51;8.30;65.40
16521;DHT22;8373;48.110;11.522;2023-02-12T09:04:21;8.40;65.20
16521;DHT22;8373;48.110;11.522;2023-02-12T09:06:51;8.50;64.80
16521;DHT22;8373;48.110;11.522;2023-02-12T09:09:19;8.60;64.50
16521;DHT22;8373;48.110;11.522;2023-02-12T09:11:46;8.80;64.30
16521;DHT22;8373;48.110;11.522;2023-02-12T09:14:15;8.80;63.80
16521;DHT22;8373;48.110;11.522;2023-02-12T09:16:43;8.90;63.80
16521;DHT22;8373;48.110;11.522;2023-02-12T09:19:12;9.00;63.50
16521;DHT22;8373;48.110;11.522;2023-02-12T09:21:39;9.20;63.20
16521;DHT22;8373;48.110;11.522;2023-02-12T09:24:08;9.40;63.00
16521;DHT22;8373;48.110;11.522;2023-02-12T09:26:35;9.60;62.40
16521;DHT22;8373;48.110;11.522;2023-02-12T09:29:03;9.80;61.90
16521;DHT22;8373;48.110;11.522;2023-02-12T09:31:31;10.00;60.80
16521;DHT22;8373;48.110;11.522;2023-02-12T09:34:00;10.50;60.70
16521;DHT22;8373;48.110;11.522;2023-02-12T09:36:27;10.80;59.30
16521;DHT22;8373;48.110;11.522;2023-02-12T09:38:54;10.90;58.60
16521;DHT22;8373;48.110;11.522;2023-02-12T09:44:21;11.00;58.10
16521;DHT22;8373;48.110;11.522;2023-02-12T09:46:53;11.00;58.40
16521;DHT22;8373;48.110;11.522;2023-02-12T09:52:25;11.00;58.90
16521;DHT22;8373;48.110;11.522;2023-02-12T09:54:53;11.20;59.50
16521;DHT22;8373;48.110;11.522;2023-02-12T09:57:25;11.40;58.70
16521;DHT22;8373;48.110;11.522;2023-02-12T09:59:57;11.50;58.50
16521;DHT22;8373;48.110;11.522;2023-02-12T10:02:25;11.50;58.40
16521;DHT22;8373;48.110;11.522;2023-02-12T10:04:52;11.60;58.50
16521;DHT22;8373;48.110;11.522;2023-02-12T10:07:26;11.60;58.30
16521;DHT22;8373;48.110;11.522;2023-02-12T10:10:14;11.70;58.30
16521;DHT22;8373;48.110;11.522;2023-02-12T10:12:50;12.40;57.90
16521;DHT22;8373;48.110;11.522;2023-02-12T10:15:33;13.20;56.70
16521;DHT22;8373;48.110;11.522;2023-02-12T10:18:32;13.40;54.50
16521;DHT22;8373;48.110;11.522;2023-02-12T10:21:12;13.70;54.30
16521;DHT22;8373;48.110;11.522;2023-02-12T10:23:59;13.80;52.80
16521;DHT22;8373;48.110;11.522;2023-02-12T10:26:33;13.90;53.30
16521;DHT22;8373;48.110;11.522;2023-02-12T10:29:11;14.30;52.50
16521;DHT22;8373;48.110;11.522;2023-02-12T10:31:41;14.40;51.70
16521;DHT22;8373;48.110;11.522;2023-02-12T10:34:14;15.50;51.70
16521;DHT22;8373;48.110;11.522;2023-02-12T10:36:44;16.50;49.80
16521;DHT22;8373;48.110;11.522;2023-02-12T10:39:14;16.90;46.60
16521;DHT22;8373;48.110;11.522;2023-02-12T10:41:46;17.30;47.00
16521;DHT22;8373;48.110;11.522;2023-02-12T10:44:15;20.40;45.30
16521;DHT22;8373;48.110;11.522;2023-02-12T10:46:42;23.60;39.60
16521;DHT22;8373;48.110;11.522;2023-02-12T10:49:11;24.40;33.80
16521;DHT22;8373;48.110;11.522;2023-02-12T10:51:49;23.80;32.20
16521;DHT22;8373;48.110;11.522;2023-02-12T10:54:38;23.80;34.20
16521;DHT22;8373;48.110;11.522;2023-02-12T10:57:12;25.80;32.00
16521;DHT22;8373;48.110;11.522;2023-02-12T10:59:43;27.50;29.50
16521;DHT22;8373;48.110;11.522;2023-02-12T11:02:25;27.80;28.30
16521;DHT22;8373;48.110;11.522;2023-02-12T11:04:53;28.80;27.20
16521;DHT22;8373;48.110;11.522;2023-02-12T11:07:21;29.40;26.00
16521;DHT22;8373;48.110;11.522;2023-02-12T11:09:50;29.90;25.40
16521;DHT22;8373;48.110;11.522;2023-02-12T11:12:19;30.50;24.90
16521;DHT22;8373;48.110;11.522;2023-02-12T11:14:52;31.10;24.20
16521;DHT22;8373;48.110;11.522;2023-02-12T11:17:24;30.60;23.60
16521;DHT22;8373;48.110;11.522;2023-02-12T11:20:07;29.00;24.70
16521;DHT22;8373;48.110;11.522;2023-02-12T11:22:52;28.70;25.80
16521;DHT22;8373;48.110;11.522;2023-02-12T11:25:22;28.70;25.50
16521;DHT22;8373;48.110;11.522;2023-02-12T11:30:53;28.50;26.20
16521;DHT22;8373;48.110;11.522;2023-02-12T11:33:24;27.60;26.20
16521;DHT22;8373;48.110;11.522;2023-02-12T11:35:53;26.60;27.30
16521;DHT22;8373;48.110;11.522;2023-02-12T11:38:33;26.60;28.20
16521;DHT22;8373;48.110;11.522;2023-02-12T11:41:08;26.90;27.90
16521;DHT22;8373;48.110;11.522;2023-02-12T11:43:44;26.60;27.50
16521;DHT22;8373;48.110;11.522;2023-02-12T11:46:18;26.40;28.20
16521;DHT22;8373;48.110;11.522;2023-02-12T11:48:46;26.60;28.00
16521;DHT22;8373;48.110;11.522;2023-02-12T11:51:19;25.80;28.80
16521;DHT22;8373;48.110;11.522;2023-02-12T11:53:49;25.50;29.10
16521;DHT22;8373;48.110;11.522;2023-02-12T11:56:17;25.40;28.90
16521;DHT22;8373;48.110;11.522;2023-02-12T11:58:45;25.10;29.60
16521;DHT22;8373;48.110;11.522;2023-02-12T12:01:18;25.60;29.60
16521;DHT22;8373;48.110;11.522;2023-02-12T12:03:53;26.20;28.50
16521;DHT22;8373;48.110;11.522;2023-02-12T12:06:28;26.20;28.40
16521;DHT22;8373;48.110;11.522;2023-02-12T12:09:03;26.20;28.30
16521;DHT22;8373;48.110;11.522;2023-02-12T12:11:37;26.00;28.30
16521;DHT22;8373;48.110;11.522;2023-02-12T12:14:12;26.00;28.90
16521;DHT22;8373;48.110;11.522;2023-02-12T12:16:46;25.90;28.40
16521;DHT22;8373;48.110;11.522;2023-02-12T12:19:39;25.80;29.00
16521;DHT22;8373;48.110;11.522;2023-02-12T12:22:39;26.20;28.70
16521;DHT22;8373;48.110;11.522;2023-02-12T12:25:15;26.50;27.90
16521;DHT22;8373;48.110;11.522;2023-02-12T12:27:57;26.40;28.10
16521;DHT22;8373;48.110;11.522;2023-02-12T12:30:40;26.30;28.40
16521;DHT22;8373;48.110;11.522;2023-02-12T12:33:18;25.60;28.30
16521;DHT22;8373;48.110;11.522;2023-02-12T12:35:53;25.00;29.30
16521;DHT22;8373;48.110;11.522;2023-02-12T12:38:30;24.20;30.00
16521;DHT22;8373;48.110;11.522;2023-02-12T12:41:04;23.40;30.60
16521;DHT22;8373;48.110;11.522;2023-02-12T12:43:48;22.80;31.50
16521;DHT22;8373;48.110;11.522;2023-02-12T12:46:33;22.30;32.90
16521;DHT22;8373;48.110;11.522;2023-02-12T12:49:19;22.10;33.50
16521;DHT22;8373;48.110;11.522;2023-02-12T12:52:11;21.70;33.90
16521;DHT22;8373;48.110;11.522;2023-02-12T12:54:52;21.10;34.20
16521;DHT22;8373;48.110;11.522;2023-02-12T12:57:33;20.40;35.70
16521;DHT22;8373;48.110;11.522;2023-02-12T13:00:29;19.80;36.60
16521;DHT22;8373;48.110;11.522;2023-02-12T13:03:39;19.40;37.20
16521;DHT22;8373;48.110;11.522;2023-02-12T13:06:29;19.00;38.10
16521;DHT22;8373;48.110;11.522;2023-02-12T13:09:25;18.20;38.80
16521;DHT22;8373;48.110;11.522;2023-02-12T13:12:20;17.50;40.20
16521;DHT22;8373;48.110;11.522;2023-02-12T13:14:59;16.90;41.40
16521;DHT22;8373;48.110;11.522;2023-02-12T13:17:30;16.50;42.40
16521;DHT22;8373;48.110;11.522;2023-02-12T13:20:05;16.40;43.30
16521;DHT22;8373;48.110;11.522;2023-02-12T13:22:41;16.50;43.50
16521;DHT22;8373;48.110;11.522;2023-02-12T13:25:20;16.40;43.70
16521;DHT22;8373;48.110;11.522;2023-02-12T13:27:48;16.20;44.40
16521;DHT22;8373;48.110;11.522;2023-02-12T13:30:20;16.20;44.80
16521;DHT22;8373;48.110;11.522;2023-02-12T13:32:53;16.30;45.40
16521;DHT22;8373;48.110;11.522;2023-02-12T13:35:23;16.40;45.00
16521;DHT22;8373;48.110;11.522;2023-02-12T13:37:54;15.90;44.70
16521;DHT22;8373;48.110;11.522;2023-02-12T13:40:22;15.40;45.80
16521;DHT22;8373;48.110;11.522;2023-02-12T13:42:54;15.00;46.70
16521;DHT22;8373;48.110;11.522;2023-02-12T13:45:30;14.80;47.50
16521;DHT22;8373;48.110;11.522;2023-02-12T13:48:12;14.70;48.10
16521;DHT22;8373;48.110;11.522;2023-02-12T13:50:45;14.60;48.20
16521;DHT22;8373;48.110;11.522;2023-02-12T13:53:24;14.60;48.60
16521;DHT22;8373;48.110;11.522;2023-02-12T13:56:05;14.70;48.70
16521;DHT22;8373;48.110;11.522;2023-02-12T13:58:46;14.70;48.60
16521;DHT22;8373;48.110;11.522;2023-02-12T14:04:25;14.50;49.10
16521;DHT22;8373;48.110;11.522;2023-02-12T14:06:55;14.50;49.20
16521;DHT22;8373;48.110;11.522;2023-02-12T14:09:29;14.30;49.50
16521;DHT22;8373;48.110;11.522;2023-02-12T14:11:57;14.30;50.20
16521;DHT22;8373;48.110;11.522;2023-02-12T14:19:54;14.00;50.60
16521;DHT22;8373;48.110;11.522;2023-02-12T14:23:01;13.70;50.70
16521;DHT22;8373;48.110;11.522;2023-02-12T14:25:37;13.60;51.30
16521;DHT22;8373;48.110;11.522;2023-02-12T14:33:25;13.20;52.60
16521;DHT22;8373;48.110;11.522;2023-02-12T14:38:59;13.00;52.60
16521;DHT22;8373;48.110;11.522;2023-02-12T14:41:38;12.90;53.20
16521;DHT22;8373;48.110;11.522;2023-02-12T14:46:45;12.80;53.40
16521;DHT22;8373;48.110;11.522;2023-02-12T14:51:53;12.80;53.60
16521;DHT22;8373;48.110;11.522;2023-02-12T14:54:28;12.80;53.50
16521;DHT22;8373;48.110;11.522;2023-02-12T14:56:59;12.60;53.90
16521;DHT22;8373;48.110;11.522;2023-02-12T14:59:30;12.40;54.30
16521;DHT22;8373;48.110;11.522;2023-02-12T15:02:00;12.20;54.70
16521;DHT22;8373;48.110;11.522;2023-02-12T15:04:31;12.20;55.10
16521;DHT22;8373;48.110;11.522;2023-02-12T15:07:04;12.10;55.30
16521;DHT22;8373;48.110;11.522;2023-02-12T15:09:36;12.00;55.90
16521;DHT22;8373;48.110;11.522;2023-02-12T15:12:14;11.90;56.10
16521;DHT22;8373;48.110;11.522;2023-02-12T15:14:46;11.80;56.40
16521;DHT22;8373;48.110;11.522;2023-02-12T15:17:17;11.60;56.80
16521;DHT22;8373;48.110;11.522;2023-02-12T15:19:50;11.50;57.20
16521;DHT22;8373;48.110;11.522;2023-02-12T15:25:16;11.30;57.60
16521;DHT22;8373;48.110;11.522;2023-02-12T15:30:29;11.10;58.00
16521;DHT22;8373;48.110;11.522;2023-02-12T15:32:59;11.00;58.30
16521;DHT22;8373;48.110;11.522;2023-02-12T15:40:53;10.70;58.50
16521;DHT22;8373;48.110;11.522;2023-02-12T15:43:20;10.60;58.60
16521;DHT22;8373;48.110;11.522;2023-02-12T15:45:51;10.60;58.80
16521;DHT22;8373;48.110;11.522;2023-02-12T15:48:19;10.60;58.90
16521;DHT22;8373;48.110;11.522;2023-02-12T15:50:50;10.60;59.80
16521;DHT22;8373;48.110;11.522;2023-02-12T15:53:19;10.50;59.40
16521;DHT22;8373;48.110;11.522;2023-02-12T15:55:49;10.40;59.40
16521;DHT22;8373;48.110;11.522;2023-02-12T15:58:22;10.40;59.50
16521;DHT22;8373;48.110;11.522;2023-02-12T16:00:52;10.30;59.70
16521;DHT22;8373;48.110;11.522;2023-02-12T16:03:22;10.20;59.90
16521;DHT22;8373;48.110;11.522;2023-02-12T16:05:50;10.10;60.00
16521;DHT22;8373;48.110;11.522;2023-02-12T16:08:19;10.10;60.80
16521;DHT22;8373;48.110;11.522;2023-02-12T16:10:50;10.00;61.10
16521;DHT22;8373;48.110;11.522;2023-02-12T16:13:23;10.00;61.20
16521;DHT22;8373;48.110;11.522;2023-02-12T16:16:05;10.00;61.00
16521;DHT22;8373;48.110;11.522;2023-02-12T16:18:33;9.90;61.70
16521;DHT22;8373;48.110;11.522;2023-02-12T16:21:04;9.80;61.50
16521;DHT22;8373;48.110;11.522;2023-02-12T16:23:34;9.80;61.60
16521;DHT22;8373;48.110;11.522;2023-02-12T16:26:01;9.70;62.00
16521;DHT22;8373;48.110;11.522;2023-02-12T16:28:29;9.60;62.30
16521;DHT22;8373;48.110;11.522;2023-02-12T16:31:08;9.50;62.40
16521;DHT22;8373;48.110;11.522;2023-02-12T16:33:42;9.40;62.90
16521;DHT22;8373;48.110;11.522;2023-02-12T16:36:14;9.30;63.30
16521;DHT22;8373;48.110;11.522;2023-02-12T16:38:52;9.20;64.00
16521;DHT22;8373;48.110;11.522;2023-02-12T16:41:22;9.10;64.70
16521;DHT22;8373;48.110;11.522;2023-02-12T16:44:01;9.10;65.10
16521;DHT22;8373;48.110;11.522;2023-02-12T16:46:45;9.10;65.50
16521;DHT22;8373;48.110;11.522;2023-02-12T16:49:14;9.10;65.90
16521;DHT22;8373;48.110;11.522;2023-02-12T16:51:42;9.10;66.10
16521;DHT22;8373;48.110;11.522;2023-02-12T16:54:25;9.20;66.30